Time;durP1;ratioP1;P1;durP2;ratioP2;P2;SDS_P1;SDS_P2;PMS_P1;PMS_P2;Temp;Humidity;BMP_temperature;BMP_pressure;BME280_temperature;BME280_humidity;BME280_pressure;Samples;Min_cycle;Max_cycle;Signal;HPM_P1;HPM_P2
2022/10/04 00:02:04;;;;;;;18.10;8.52;;;;;;;;;;4972023;28;20050;-76
2022/10/04 00:04:50;;;;;;;17.00;9.63;;;;;;;;;;4971764;28;20494;-76
2022/10/04 00:07:20;;;;;;;17.77;9.43;;;;;;;;;;4970659;28;20043;-77
2022/10/04 00:09:51;;;;;;;25.10;10.25;;;;;;;;;;4952484;28;20146;-76
2022/10/04 00:12:25;;;;;;;16.15;9.43;;;;;;;;;;4953007;28;20086;-76
2022/10/04 00:14:52;;;;;;;22.48;10.32;;;;;;;;;;4952135;28;20410;-76
2022/10/04 00:17:30;;;;;;;16.65;9.85;;;;;;;;;;4951341;28;20051;-76
2022/10/04 00:19:57;;;;;;;18.45;11.05;;;;;;;;;;4952539;28;20065;-76
2022/10/04 00:22:24;;;;;;;17.55;10.20;;;;;;;;;;4957571;28;20042;-76
2022/10/04 00:25:08;;;;;;;19.65;10.75;;;;;;;;;;4957887;28;20052;-76
2022/10/04 00:27:38;;;;;;;18.42;10.90;;;;;;;;;;4952092;28;20413;-76
2022/10/04 00:30:04;;;;;;;21.08;11.38;;;;;;;;;;4955072;28;20058;-76
2022/10/04 00:32:31;;;;;;;17.63;10.65;;;;;;;;;;4951794;28;20414;-76
2022/10/04 00:34:58;;;;;;;19.08;11.93;;;;;;;;;;4952253;28;20047;-76
2022/10/04 00:37:26;;;;;;;19.98;11.98;;;;;;;;;;4952428;28;20098;-76
2022/10/04 00:39:57;;;;;;;20.77;11.73;;;;;;;;;;4952576;28;20078;-76
2022/10/04 00:42:31;;;;;;;17.98;10.80;;;;;;;;;;4955292;28;20529;-76
2022/10/04 00:45:08;;;;;;;19.63;11.65;;;;;;;;;;4955638;28;20047;-76
2022/10/04 00:47:36;;;;;;;22.33;12.20;;;;;;;;;;4957037;28;20043;-76
2022/10/04 00:50:21;;;;;;;19.98;12.05;;;;;;;;;;4974589;28;20069;-77
2022/10/04 00:52:49;;;;;;;19.17;12.05;;;;;;;;;;4974153;28;20042;-76
2022/10/04 00:55:22;;;;;;;19.20;11.82;;;;;;;;;;4937962;28;20456;-76
2022/10/04 00:57:52;;;;;;;18.80;11.45;;;;;;;;;;4955502;28;20092;-76
2022/10/04 01:00:20;;;;;;;21.08;11.73;;;;;;;;;;4955459;28;20055;-76
2022/10/04 01:02:52;;;;;;;19.92;11.02;;;;;;;;;;4955029;28;20058;-76
2022/10/04 01:05:20;;;;;;;22.10;12.18;;;;;;;;;;4955190;28;20044;-76
2022/10/04 01:07:49;;;;;;;20.60;12.10;;;;;;;;;;4955072;28;20483;-76
2022/10/04 01:10:21;;;;;;;18.45;11.35;;;;;;;;;;4954589;28;20139;-77
2022/10/04 01:13:06;;;;;;;18.27;11.70;;;;;;;;;;4955063;28;20051;-76
2022/10/04 01:15:49;;;;;;;19.58;12.77;;;;;;;;;;4954790;28;20043;-76
2022/10/04 01:18:28;;;;;;;27.55;12.73;;;;;;;;;;4956505;28;20113;-76
2022/10/04 01:21:09;;;;;;;23.60;12.43;;;;;;;;;;4974323;28;20078;-76
2022/10/04 01:23:35;;;;;;;18.67;12.02;;;;;;;;;;4973983;28;20043;-76
2022/10/04 01:26:02;;;;;;;24.40;12.13;;;;;;;;;;4974044;28;20061;-76
2022/10/04 01:28:28;;;;;;;19.23;11.40;;;;;;;;;;4973586;28;20490;-76
2022/10/04 01:30:55;;;;;;;26.00;11.88;;;;;;;;;;4974156;28;20185;-76
2022/10/04 01:33:21;;;;;;;26.92;12.57;;;;;;;;;;4973088;28;20047;-77
2022/10/04 01:35:47;;;;;;;20.70;12.07;;;;;;;;;;4973935;28;20058;-76
2022/10/04 01:38:13;;;;;;;16.23;11.65;;;;;;;;;;4967642;28;20046;-76
2022/10/04 01:40:45;;;;;;;20.15;11.57;;;;;;;;;;4954576;28;20048;-76
2022/10/04 01:43:13;;;;;;;18.33;11.23;;;;;;;;;;4954835;28;20516;-76
2022/10/04 01:45:42;;;;;;;21.38;11.27;;;;;;;;;;4954991;28;20496;-76
2022/10/04 01:48:10;;;;;;;22.50;12.82;;;;;;;;;;4954782;28;20035;-76
2022/10/04 01:50:47;;;;;;;21.10;11.07;;;;;;;;;;4954455;28;20047;-76
2022/10/04 01:53:19;;;;;;;19.55;11.20;;;;;;;;;;4953464;28;20513;-76
2022/10/04 01:55:47;;;;;;;21.88;12.07;;;;;;;;;;4953384;28;20083;-76
2022/10/04 01:58:36;;;;;;;20.02;11.35;;;;;;;;;;4954385;28;20047;-77
2022/10/04 02:01:09;;;;;;;21.83;11.85;;;;;;;;;;4949716;28;20066;-76
2022/10/04 02:03:38;;;;;;;20.50;10.93;;;;;;;;;;4955614;29;20043;-76
2022/10/04 02:06:07;;;;;;;15.88;10.82;;;;;;;;;;4955989;29;20043;-76
2022/10/04 02:08:35;;;;;;;25.15;11.43;;;;;;;;;;4954008;29;20047;-76
2022/10/04 02:11:03;;;;;;;19.40;11.52;;;;;;;;;;4954326;28;20044;-76
2022/10/04 02:13:33;;;;;;;20.65;11.05;;;;;;;;;;4954180;29;20051;-76
2022/10/04 02:16:01;;;;;;;19.67;11.55;;;;;;;;;;4954296;29;20058;-76
2022/10/04 02:18:28;;;;;;;18.48;10.85;;;;;;;;;;4959322;28;20094;-76
2022/10/04 02:20:55;;;;;;;22.38;11.55;;;;;;;;;;4963133;28;20052;-76
2022/10/04 02:23:22;;;;;;;19.38;10.73;;;;;;;;;;4953985;28;20070;-76
2022/10/04 02:25:48;;;;;;;19.33;10.82;;;;;;;;;;4953944;28;20044;-76
2022/10/04 02:28:15;;;;;;;23.15;11.65;;;;;;;;;;4958426;28;20050;-76
2022/10/04 02:30:43;;;;;;;20.45;10.90;;;;;;;;;;4973242;28;20043;-76
2022/10/04 02:33:10;;;;;;;20.00;11.30;;;;;;;;;;4952955;28;20043;-76
2022/10/04 02:35:37;;;;;;;17.95;10.73;;;;;;;;;;4954033;28;20463;-76
2022/10/04 02:38:23;;;;;;;21.88;11.50;;;;;;;;;;4956641;28;20047;-76
2022/10/04 02:40:56;;;;;;;22.15;12.35;;;;;;;;;;4972580;28;20047;-76
2022/10/04 02:43:48;;;;;;;19.45;11.02;;;;;;;;;;4973038;28;20039;-76
2022/10/04 02:46:18;;;;;;;21.38;11.93;;;;;;;;;;4976165;28;20101;-76
2022/10/04 02:48:44;;;;;;;18.35;11.93;;;;;;;;;;4972327;28;20181;-76
2022/10/04 02:51:24;;;;;;;18.90;11.55;;;;;;;;;;4973119;28;20565;-76
2022/10/04 02:53:56;;;;;;;22.92;11.30;;;;;;;;;;4973011;28;20047;-76
2022/10/04 02:56:24;;;;;;;20.60;12.27;;;;;;;;;;4972512;28;20494;-76
2022/10/04 02:58:50;;;;;;;19.58;11.43;;;;;;;;;;4963837;28;20592;-76
2022/10/04 03:01:24;;;;;;;22.52;12.05;;;;;;;;;;4953250;28;20140;-76
2022/10/04 03:03:51;;;;;;;23.23;12.45;;;;;;;;;;4953333;28;20043;-76
2022/10/04 03:06:18;;;;;;;20.20;12.35;;;;;;;;;;4952907;28;20387;-76
2022/10/04 03:08:49;;;;;;;20.25;12.20;;;;;;;;;;4953169;28;20051;-76
2022/10/04 03:11:15;;;;;;;25.27;12.68;;;;;;;;;;4953178;28;20131;-77
2022/10/04 03:13:45;;;;;;;21.15;13.10;;;;;;;;;;4951997;28;20075;-76
2022/10/04 03:16:11;;;;;;;22.60;13.20;;;;;;;;;;4953111;28;20054;-76
2022/10/04 03:18:37;;;;;;;23.02;11.80;;;;;;;;;;4953305;28;20117;-76
2022/10/04 03:21:06;;;;;;;22.38;12.38;;;;;;;;;;4951867;28;20059;-76
2022/10/04 03:23:32;;;;;;;20.98;12.07;;;;;;;;;;4953658;28;20043;-76
2022/10/04 03:26:16;;;;;;;26.30;13.43;;;;;;;;;;4952949;28;20047;-76
2022/10/04 03:28:42;;;;;;;20.15;12.52;;;;;;;;;;4935548;28;20115;-76
2022/10/04 03:31:08;;;;;;;23.20;13.27;;;;;;;;;;4952852;28;20047;-76
2022/10/04 03:33:34;;;;;;;19.83;13.32;;;;;;;;;;4952808;28;20074;-76
2022/10/04 03:36:00;;;;;;;22.70;12.52;;;;;;;;;;4952620;28;20561;-76
2022/10/04 03:38:27;;;;;;;22.05;13.30;;;;;;;;;;4952669;28;20138;-76
2022/10/04 03:40:55;;;;;;;26.20;14.50;;;;;;;;;;4953069;28;20071;-76
2022/10/04 03:43:24;;;;;;;23.35;14.10;;;;;;;;;;4953771;28;20055;-76
2022/10/04 03:45:51;;;;;;;28.73;14.60;;;;;;;;;;4952683;28;20047;-76
2022/10/04 03:48:22;;;;;;;21.45;13.98;;;;;;;;;;4935736;28;20382;-76
2022/10/04 03:50:48;;;;;;;25.95;13.65;;;;;;;;;;4952721;28;20040;-76
2022/10/04 03:53:22;;;;;;;26.10;14.75;;;;;;;;;;4953083;28;20082;-76
2022/10/04 03:55:48;;;;;;;26.92;14.68;;;;;;;;;;4952627;28;20047;-76
2022/10/04 03:58:16;;;;;;;29.92;15.85;;;;;;;;;;4952443;28;20138;-76
2022/10/04 04:00:44;;;;;;;20.70;14.10;;;;;;;;;;4953607;28;20047;-76
2022/10/04 04:03:15;;;;;;;24.58;14.30;;;;;;;;;;4952702;28;20142;-76
2022/10/04 04:05:45;;;;;;;19.25;13.13;;;;;;;;;;4952876;28;20051;-76
2022/10/04 04:08:26;;;;;;;19.42;13.38;;;;;;;;;;4952558;28;20051;-76
2022/10/04 04:10:54;;;;;;;24.13;13.48;;;;;;;;;;4955084;28;20101;-76
2022/10/04 04:13:30;;;;;;;24.35;13.80;;;;;;;;;;4972921;28;20092;-76
2022/10/04 04:15:56;;;;;;;22.52;14.07;;;;;;;;;;4974213;28;20130;-76
2022/10/04 04:18:24;;;;;;;26.02;14.45;;;;;;;;;;4971934;28;20078;-76
2022/10/04 04:20:51;;;;;;;29.42;15.63;;;;;;;;;;4955661;28;20062;-76
2022/10/04 04:23:27;;;;;;;25.55;14.77;;;;;;;;;;4955818;28;20047;-76
2022/10/04 04:25:55;;;;;;;24.25;13.80;;;;;;;;;;4959875;28;20521;-76
2022/10/04 04:28:30;;;;;;;25.65;14.65;;;;;;;;;;5041899;28;22059;-76
2022/10/04 04:30:59;;;;;;;29.55;15.82;;;;;;;;;;4975250;28;20047;-76
2022/10/04 04:33:28;;;;;;;31.35;15.63;;;;;;;;;;4975110;28;20043;-76
2022/10/04 04:35:56;;;;;;;30.08;16.05;;;;;;;;;;4975408;28;20054;-76
2022/10/04 04:38:23;;;;;;;22.92;14.45;;;;;;;;;;4975214;28;20051;-76
2022/10/04 04:40:54;;;;;;;24.40;15.07;;;;;;;;;;4968604;28;20039;-76
2022/10/04 04:43:20;;;;;;;24.38;15.30;;;;;;;;;;4955611;28;20051;-76
2022/10/04 04:45:48;;;;;;;27.75;15.82;;;;;;;;;;4954965;28;20398;-76
2022/10/04 04:48:15;;;;;;;24.80;15.60;;;;;;;;;;4956336;28;20122;-76
2022/10/04 04:50:41;;;;;;;30.13;16.15;;;;;;;;;;4974119;28;20104;-76
2022/10/04 04:53:21;;;;;;;25.73;16.20;;;;;;;;;;4975108;28;20169;-76
2022/10/04 04:55:58;;;;;;;30.13;15.95;;;;;;;;;;4966480;28;20556;-76
2022/10/04 04:58:25;;;;;;;29.67;16.45;;;;;;;;;;4955137;28;20043;-76
2022/10/04 05:01:03;;;;;;;26.13;15.85;;;;;;;;;;4954999;28;20441;-76
2022/10/04 05:03:30;;;;;;;27.02;15.35;;;;;;;;;;4955134;28;20043;-76
2022/10/04 05:05:59;;;;;;;25.35;15.00;;;;;;;;;;4955792;28;20048;-76
2022/10/04 05:08:26;;;;;;;23.63;15.82;;;;;;;;;;4954946;28;20086;-76
2022/10/04 05:11:08;;;;;;;26.38;16.48;;;;;;;;;;4955034;28;20579;-76
2022/10/04 05:13:38;;;;;;;28.30;15.73;;;;;;;;;;4953975;28;20169;-76
2022/10/04 05:16:06;;;;;;;24.15;14.57;;;;;;;;;;4953405;28;20055;-76
2022/10/04 05:18:33;;;;;;;28.80;15.32;;;;;;;;;;4954567;28;20101;-76
2022/10/04 05:21:12;;;;;;;32.30;15.68;;;;;;;;;;4954893;28;20052;-76
2022/10/04 05:23:38;;;;;;;32.05;16.27;;;;;;;;;;4954686;29;20047;-76
2022/10/04 05:26:10;;;;;;;26.50;15.77;;;;;;;;;;4960194;28;20080;-76
2022/10/04 05:28:36;;;;;;;24.63;16.65;;;;;;;;;;4961847;28;20425;-76
2022/10/04 05:31:02;;;;;;;28.20;16.55;;;;;;;;;;4977848;28;20445;-77
2022/10/04 05:33:46;;;;;;;30.08;17.13;;;;;;;;;;4977176;28;20050;-76
2022/10/04 05:36:22;;;;;;;25.15;16.45;;;;;;;;;;4972697;28;20051;-76
2022/10/04 05:38:48;;;;;;;29.07;16.30;;;;;;;;;;4974083;28;20126;-76
2022/10/04 05:41:28;;;;;;;24.58;16.50;;;;;;;;;;4964987;28;20086;-76
2022/10/04 05:43:54;;;;;;;29.15;16.65;;;;;;;;;;4954829;29;20114;-76
2022/10/04 05:46:28;;;;;;;26.98;16.38;;;;;;;;;;4957277;29;20490;-75
2022/10/04 05:49:07;;;;;;;28.98;17.30;;;;;;;;;;4965863;28;20051;-76
2022/10/04 05:51:36;;;;;;;26.05;17.13;;;;;;;;;;4970566;28;20047;-75
2022/10/04 05:54:03;;;;;;;29.20;18.00;;;;;;;;;;4974768;28;20505;-77
2022/10/04 05:56:29;;;;;;;27.60;18.75;;;;;;;;;;4973522;28;20047;-77
2022/10/04 05:59:08;;;;;;;30.02;19.77;;;;;;;;;;4958421;28;20126;-77
2022/10/04 06:01:40;;;;;;;34.47;19.25;;;;;;;;;;4954445;28;20383;-79
2022/10/04 06:04:16;;;;;;;34.25;21.48;;;;;;;;;;4954125;28;20054;-77
2022/10/04 06:06:53;;;;;;;31.55;19.75;;;;;;;;;;4954214;28;20056;-78
2022/10/04 06:09:37;;;;;;;29.02;20.15;;;;;;;;;;4952745;29;20494;-78
2022/10/04 06:12:06;;;;;;;33.53;19.48;;;;;;;;;;4968714;28;20490;-77
2022/10/04 06:14:32;;;;;;;34.92;21.10;;;;;;;;;;4973669;28;20054;-77
2022/10/04 06:17:05;;;;;;;33.42;20.30;;;;;;;;;;4973364;28;20390;-77
2022/10/04 06:19:34;;;;;;;31.13;20.15;;;;;;;;;;4972784;28;20137;-77
2022/10/04 06:22:06;;;;;;;33.03;19.48;;;;;;;;;;4973098;28;20117;-77
2022/10/04 06:24:36;;;;;;;36.28;20.13;;;;;;;;;;4973062;28;20043;-77
2022/10/04 06:27:08;;;;;;;29.48;19.35;;;;;;;;;;4973248;28;20053;-77
2022/10/04 06:29:37;;;;;;;30.77;18.58;;;;;;;;;;4971942;28;20047;-77
2022/10/04 06:32:07;;;;;;;26.30;17.88;;;;;;;;;;4953556;28;20043;-77
2022/10/04 06:34:36;;;;;;;28.17;17.60;;;;;;;;;;4953381;28;20406;-77
2022/10/04 06:37:12;;;;;;;27.88;17.63;;;;;;;;;;4953474;28;20100;-77
2022/10/04 06:39:53;;;;;;;26.20;17.75;;;;;;;;;;4953320;28;20051;-76
2022/10/04 06:42:41;;;;;;;25.15;16.67;;;;;;;;;;4954783;28;20058;-77
2022/10/04 06:45:07;;;;;;;23.15;15.70;;;;;;;;;;4953623;28;20490;-76
2022/10/04 06:47:33;;;;;;;29.67;17.58;;;;;;;;;;4962258;28;20039;-78
2022/10/04 06:50:18;;;;;;;21.80;16.65;;;;;;;;;;4973477;28;20050;-79
2022/10/04 06:52:54;;;;;;;28.65;16.40;;;;;;;;;;4973654;28;20074;-79
2022/10/04 06:55:32;;;;;;;27.33;16.42;;;;;;;;;;4973702;28;20066;-83
2022/10/04 06:57:58;;;;;;;24.80;16.30;;;;;;;;;;4955967;28;20048;-78
2022/10/04 07:00:29;;;;;;;26.10;16.75;;;;;;;;;;4954027;28;20100;-78
2022/10/04 07:03:01;;;;;;;24.42;15.63;;;;;;;;;;4953295;29;20047;-79
2022/10/04 07:05:47;;;;;;;22.85;15.60;;;;;;;;;;4954425;28;20419;-76
2022/10/04 07:08:29;;;;;;;25.38;14.68;;;;;;;;;;4958050;28;20046;-85
2022/10/04 07:10:56;;;;;;;21.13;14.70;;;;;;;;;;4955449;28;20055;-79
2022/10/04 07:13:42;;;;;;;18.80;14.45;;;;;;;;;;4953828;28;20043;-78
2022/10/04 07:16:27;;;;;;;20.63;14.23;;;;;;;;;;4958443;28;20085;-79
2022/10/04 07:19:03;;;;;;;23.77;15.88;;;;;;;;;;4953270;28;20059;-79
2022/10/04 07:21:35;;;;;;;21.77;14.38;;;;;;;;;;4953618;28;20051;-78
2022/10/04 07:24:02;;;;;;;24.73;14.88;;;;;;;;;;4937482;29;20105;-79
2022/10/04 07:26:33;;;;;;;19.92;14.48;;;;;;;;;;4953900;28;20118;-79
2022/10/04 07:29:20;;;;;;;21.98;14.68;;;;;;;;;;4953369;28;20055;-79
2022/10/04 07:31:48;;;;;;;20.67;14.50;;;;;;;;;;4952135;28;20087;-79
2022/10/04 07:34:16;;;;;;;20.38;14.60;;;;;;;;;;4953065;28;20074;-79
2022/10/04 07:36:45;;;;;;;20.80;14.32;;;;;;;;;;4953627;28;20051;-79
2022/10/04 07:39:14;;;;;;;20.00;13.30;;;;;;;;;;4953399;28;20047;-84
2022/10/04 07:42:01;;;;;;;21.65;14.77;;;;;;;;;;4963292;28;20047;-78
2022/10/04 07:44:33;;;;;;;22.20;13.82;;;;;;;;;;4955728;28;20047;-79
2022/10/04 07:46:59;;;;;;;19.23;13.00;;;;;;;;;;4971044;28;20086;-77
2022/10/04 07:49:26;;;;;;;19.92;13.80;;;;;;;;;;4973851;28;20058;-78
2022/10/04 07:52:15;;;;;;;22.80;14.00;;;;;;;;;;4960200;28;20047;-78
2022/10/04 07:54:41;;;;;;;24.95;14.50;;;;;;;;;;4961462;28;20074;-79
2022/10/04 07:57:12;;;;;;;18.55;13.65;;;;;;;;;;4953995;28;20402;-79
2022/10/04 07:59:42;;;;;;;20.10;12.50;;;;;;;;;;4954302;28;20054;-79
2022/10/04 08:02:27;;;;;;;20.52;13.75;;;;;;;;;;4952936;28;20040;-78
2022/10/04 08:04:57;;;;;;;20.58;13.68;;;;;;;;;;4953592;28;20050;-79
2022/10/04 08:07:38;;;;;;;20.92;13.48;;;;;;;;;;4972277;28;20047;-78
2022/10/04 08:10:18;;;;;;;19.85;12.65;;;;;;;;;;4972302;28;20121;-78
2022/10/04 08:12:44;;;;;;;20.65;13.18;;;;;;;;;;4967831;28;20053;-78
2022/10/04 08:15:12;;;;;;;18.90;12.57;;;;;;;;;;4956851;28;20040;-78
2022/10/04 08:17:56;;;;;;;17.00;13.07;;;;;;;;;;4980234;28;20101;-79
2022/10/04 08:20:41;;;;;;;20.90;12.80;;;;;;;;;;4963990;28;20517;-78
2022/10/04 08:23:19;;;;;;;19.98;12.45;;;;;;;;;;4989444;28;20125;-78
2022/10/04 08:25:45;;;;;;;17.77;12.02;;;;;;;;;;5003717;28;20109;-78
2022/10/04 08:31:31;;;;;;;17.95;11.70;;;;;;;;;;4955845;28;20082;-78
2022/10/04 08:34:03;;;;;;;17.33;12.50;;;;;;;;;;4969623;28;20054;-78
2022/10/04 08:36:47;;;;;;;19.23;11.98;;;;;;;;;;4952802;28;20047;-78
2022/10/04 08:39:29;;;;;;;18.33;12.43;;;;;;;;;;4968433;28;20039;-79
2022/10/04 08:42:14;;;;;;;21.92;13.10;;;;;;;;;;4963345;28;20050;-79
2022/10/04 08:44:55;;;;;;;21.33;12.30;;;;;;;;;;4952126;28;20134;-78
2022/10/04 08:47:42;;;;;;;18.95;12.82;;;;;;;;;;4952666;28;20044;-78
2022/10/04 08:50:20;;;;;;;22.65;12.70;;;;;;;;;;4952911;28;20043;-78
2022/10/04 08:52:56;;;;;;;18.50;12.77;;;;;;;;;;4955172;28;20051;-77
2022/10/04 08:55:33;;;;;;;17.67;12.85;;;;;;;;;;4954670;28;20054;-78
2022/10/04 08:58:08;;;;;;;19.02;13.45;;;;;;;;;;4955121;28;20055;-78
2022/10/04 09:00:50;;;;;;;19.67;13.93;;;;;;;;;;4960180;28;20096;-79
2022/10/04 09:03:46;;;;;;;19.15;13.82;;;;;;;;;;4983102;28;20587;-78
2022/10/04 09:06:18;;;;;;;20.17;13.95;;;;;;;;;;5041090;28;20054;-78
2022/10/04 09:09:02;;;;;;;19.70;12.95;;;;;;;;;;5057583;28;20041;-77
2022/10/04 09:11:28;;;;;;;19.42;14.52;;;;;;;;;;5031404;28;20060;-80
2022/10/04 09:14:13;;;;;;;18.55;14.48;;;;;;;;;;5043298;28;20049;-77
2022/10/04 09:16:39;;;;;;;21.55;14.35;;;;;;;;;;5038362;28;20053;-77
2022/10/04 09:19:22;;;;;;;20.83;13.98;;;;;;;;;;5040615;28;20061;-80
2022/10/04 09:22:03;;;;;;;21.35;14.43;;;;;;;;;;5041138;28;20511;-77
2022/10/04 09:24:44;;;;;;;22.25;13.88;;;;;;;;;;5041466;28;20065;-77
2022/10/04 09:27:10;;;;;;;21.23;14.80;;;;;;;;;;5043253;28;20089;-76
2022/10/04 09:29:55;;;;;;;20.25;14.85;;;;;;;;;;5049892;28;20063;-76
2022/10/04 09:32:45;;;;;;;23.35;15.93;;;;;;;;;;5052292;28;20081;-78
2022/10/04 09:35:33;;;;;;;26.15;16.30;;;;;;;;;;5020147;28;20121;-80
2022/10/04 09:38:17;;;;;;;23.45;15.25;;;;;;;;;;5036986;28;20045;-78
2022/10/04 09:40:43;;;;;;;19.23;14.98;;;;;;;;;;5040935;28;20488;-80
2022/10/04 09:43:36;;;;;;;23.25;15.20;;;;;;;;;;4995345;28;20497;-78
2022/10/04 09:46:20;;;;;;;22.05;14.80;;;;;;;;;;4975090;28;20047;-78
2022/10/04 09:48:51;;;;;;;20.92;15.20;;;;;;;;;;4961476;28;20051;-78
2022/10/04 09:51:38;;;;;;;19.98;15.38;;;;;;;;;;4969155;28;20493;-78
2022/10/04 09:54:21;;;;;;;22.52;14.52;;;;;;;;;;4980167;28;20047;-77
2022/10/04 09:57:10;;;;;;;23.88;15.80;;;;;;;;;;4981810;28;20050;-76
2022/10/04 09:59:52;;;;;;;23.30;14.98;;;;;;;;;;4982445;28;20146;-77
2022/10/04 10:02:37;;;;;;;22.08;15.35;;;;;;;;;;4966374;28;20066;-77
2022/10/04 10:05:22;;;;;;;20.77;14.93;;;;;;;;;;4980600;28;20043;-77
2022/10/04 10:08:08;;;;;;;20.60;15.32;;;;;;;;;;4960980;28;20031;-77
2022/10/04 10:13:41;;;;;;;20.98;15.30;;;;;;;;;;4955197;28;20082;-75
2022/10/04 10:16:28;;;;;;;20.45;14.85;;;;;;;;;;4955749;28;20126;-76
2022/10/04 10:19:13;;;;;;;22.23;15.10;;;;;;;;;;4967030;28;20059;-76
2022/10/04 10:22:10;;;;;;;20.65;14.38;;;;;;;;;;4954884;28;20047;-75
2022/10/04 10:24:54;;;;;;;21.08;15.35;;;;;;;;;;4955435;29;20054;-76
2022/10/04 10:27:36;;;;;;;20.98;15.45;;;;;;;;;;4955302;29;20624;-76
2022/10/04 10:30:22;;;;;;;22.70;15.85;;;;;;;;;;4972301;28;20084;-75
2022/10/04 10:33:00;;;;;;;24.00;15.70;;;;;;;;;;4974540;28;20055;-76
2022/10/04 10:35:29;;;;;;;18.70;14.38;;;;;;;;;;4980155;28;20050;-76
2022/10/04 10:37:55;;;;;;;22.67;14.52;;;;;;;;;;4971198;28;20489;-75
2022/10/04 10:41:00;;;;;;;20.20;13.98;;;;;;;;;;4963169;28;20043;-78
2022/10/04 10:43:40;;;;;;;19.20;13.23;;;;;;;;;;4932775;28;20055;-78
2022/10/04 10:46:20;;;;;;;21.13;13.68;;;;;;;;;;4939430;29;20079;-76
2022/10/04 10:48:46;;;;;;;20.15;13.30;;;;;;;;;;4933766;29;20091;-77
2022/10/04 10:51:33;;;;;;;18.60;13.60;;;;;;;;;;4943535;29;20088;-77
2022/10/04 10:54:17;;;;;;;17.90;12.55;;;;;;;;;;4950372;29;20059;-77
2022/10/04 10:56:50;;;;;;;16.90;11.43;;;;;;;;;;4951357;29;20050;-77
2022/10/04 10:59:19;;;;;;;17.58;12.23;;;;;;;;;;4951511;29;20054;-77
2022/10/04 11:01:52;;;;;;;17.17;11.82;;;;;;;;;;4951565;29;20508;-77
2022/10/04 11:04:18;;;;;;;16.88;11.27;;;;;;;;;;4951202;29;20490;-77
2022/10/04 11:06:53;;;;;;;15.00;11.32;;;;;;;;;;4951074;29;20415;-77
2022/10/04 11:09:22;;;;;;;16.10;10.90;;;;;;;;;;4951512;28;20152;-77
2022/10/04 11:12:06;;;;;;;14.60;10.68;;;;;;;;;;4951006;29;20050;-77
2022/10/04 11:14:35;;;;;;;14.98;10.43;;;;;;;;;;4952534;28;20113;-77
2022/10/04 11:17:04;;;;;;;15.43;10.02;;;;;;;;;;4955447;28;20043;-77
2022/10/04 11:19:53;;;;;;;15.63;10.82;;;;;;;;;;4952954;28;20500;-77
2022/10/04 11:22:41;;;;;;;15.30;10.68;;;;;;;;;;4952851;28;20397;-77
2022/10/04 11:25:07;;;;;;;17.73;10.35;;;;;;;;;;4950250;28;20055;-77
2022/10/04 11:27:42;;;;;;;16.35;10.32;;;;;;;;;;4968959;28;20043;-78
2022/10/04 11:30:22;;;;;;;13.63;9.90;;;;;;;;;;4972243;28;20051;-77
2022/10/04 11:33:13;;;;;;;14.82;9.95;;;;;;;;;;4972235;28;20100;-78
2022/10/04 11:35:53;;;;;;;12.07;9.63;;;;;;;;;;4972334;28;20532;-77
2022/10/04 11:38:34;;;;;;;15.55;9.80;;;;;;;;;;4972201;28;20051;-77
2022/10/04 11:41:02;;;;;;;11.90;9.73;;;;;;;;;;4962066;28;20070;-77
2022/10/04 11:43:48;;;;;;;15.02;8.95;;;;;;;;;;4953568;28;20086;-77
2022/10/04 11:46:20;;;;;;;14.95;9.55;;;;;;;;;;4953316;28;20086;-77
2022/10/04 11:49:01;;;;;;;12.32;8.93;;;;;;;;;;4953147;28;20091;-78
2022/10/04 11:51:57;;;;;;;12.15;8.90;;;;;;;;;;4952607;28;20043;-77
2022/10/04 11:54:30;;;;;;;13.17;9.87;;;;;;;;;;4951182;28;20105;-77
2022/10/04 11:57:08;;;;;;;14.98;8.80;;;;;;;;;;4952699;28;20073;-77
2022/10/04 11:59:53;;;;;;;14.18;9.30;;;;;;;;;;4951445;28;20113;-77
2022/10/04 12:02:27;;;;;;;12.68;8.98;;;;;;;;;;4952257;28;20551;-77
2022/10/04 12:05:10;;;;;;;12.73;9.23;;;;;;;;;;4955376;28;20047;-78
2022/10/04 12:07:55;;;;;;;11.18;9.52;;;;;;;;;;4970800;28;20102;-77
2022/10/04 12:10:36;;;;;;;13.73;9.80;;;;;;;;;;4970814;28;20400;-78
2022/10/04 12:13:08;;;;;;;11.80;8.80;;;;;;;;;;4970302;28;20074;-77
2022/10/04 12:15:48;;;;;;;13.02;9.85;;;;;;;;;;4960119;28;20054;-77
2022/10/04 12:18:31;;;;;;;17.33;9.75;;;;;;;;;;4956689;28;20086;-76
2022/10/04 12:20:58;;;;;;;14.90;9.75;;;;;;;;;;4964105;28;20100;-76
2022/10/04 12:23:29;;;;;;;14.57;9.68;;;;;;;;;;4971566;28;20417;-76
2022/10/04 12:25:55;;;;;;;12.98;9.27;;;;;;;;;;4956521;28;20051;-76
2022/10/04 12:28:46;;;;;;;12.77;9.13;;;;;;;;;;4952267;28;20047;-76
2022/10/04 12:31:12;;;;;;;13.45;9.95;;;;;;;;;;4968129;28;20054;-76
2022/10/04 12:33:38;;;;;;;15.05;9.57;;;;;;;;;;4971613;28;20043;-76
2022/10/04 12:36:09;;;;;;;11.85;8.95;;;;;;;;;;4960672;28;20101;-76
2022/10/04 12:38:38;;;;;;;14.80;9.40;;;;;;;;;;4960905;28;20086;-76
2022/10/04 12:41:18;;;;;;;12.93;9.40;;;;;;;;;;4963528;28;20047;-77
2022/10/04 12:43:47;;;;;;;13.90;8.98;;;;;;;;;;4968153;28;20113;-75
2022/10/04 12:46:19;;;;;;;13.75;8.40;;;;;;;;;;4966125;28;20039;-75
2022/10/04 12:49:04;;;;;;;11.45;7.80;;;;;;;;;;4966013;28;20047;-76
2022/10/04 12:51:49;;;;;;;17.33;8.30;;;;;;;;;;4970046;28;20039;-75
2022/10/04 12:54:34;;;;;;;11.18;7.53;;;;;;;;;;4963338;28;20043;-76
2022/10/04 12:57:03;;;;;;;11.55;7.57;;;;;;;;;;4968136;28;20051;-75
2022/10/04 12:59:37;;;;;;;11.82;7.80;;;;;;;;;;4971631;28;20046;-75
2022/10/04 13:02:06;;;;;;;10.48;6.80;;;;;;;;;;4985835;28;20085;-75
2022/10/04 13:04:47;;;;;;;9.05;6.40;;;;;;;;;;4980383;28;20468;-75
2022/10/04 13:07:13;;;;;;;8.02;5.85;;;;;;;;;;4956639;28;20102;-76
2022/10/04 13:09:58;;;;;;;9.43;6.07;;;;;;;;;;4967210;28;20498;-75
2022/10/04 13:12:38;;;;;;;8.95;5.40;;;;;;;;;;4963696;28;20039;-76
2022/10/04 13:15:24;;;;;;;9.98;6.10;;;;;;;;;;4961893;28;20118;-76
2022/10/04 13:18:05;;;;;;;8.88;5.90;;;;;;;;;;4962443;28;20063;-75
2022/10/04 13:20:53;;;;;;;9.70;6.10;;;;;;;;;;4963804;28;20051;-76
2022/10/04 13:23:39;;;;;;;8.52;6.47;;;;;;;;;;4964383;28;20419;-76
2022/10/04 13:26:25;;;;;;;8.52;6.20;;;;;;;;;;4964318;28;20375;-75
2022/10/04 13:29:01;;;;;;;18.50;6.63;;;;;;;;;;4979818;28;20512;-77
2022/10/04 13:31:38;;;;;;;10.85;6.15;;;;;;;;;;4975465;28;20049;-76
2022/10/04 13:34:06;;;;;;;8.98;6.60;;;;;;;;;;4959253;28;20051;-75
2022/10/04 13:36:46;;;;;;;8.32;5.70;;;;;;;;;;4956291;28;20051;-75
2022/10/04 13:39:24;;;;;;;7.82;5.10;;;;;;;;;;4960658;28;20044;-76
2022/10/04 13:42:12;;;;;;;8.60;5.55;;;;;;;;;;4956952;28;20090;-76
2022/10/04 13:45:01;;;;;;;7.22;5.13;;;;;;;;;;4969814;28;20047;-75
2022/10/04 13:47:53;;;;;;;7.63;5.70;;;;;;;;;;4989142;28;20054;-76
2022/10/04 13:50:49;;;;;;;6.35;4.95;;;;;;;;;;4979792;28;20505;-75
2022/10/04 13:56:39;;;;;;;8.90;4.50;;;;;;;;;;4965404;28;20051;-73
2022/10/04 13:59:17;;;;;;;6.68;4.57;;;;;;;;;;4958606;28;20518;-76
2022/10/04 14:01:49;;;;;;;7.22;4.55;;;;;;;;;;4956648;28;20047;-75
2022/10/04 14:04:34;;;;;;;11.35;5.25;;;;;;;;;;4958820;28;20051;-75
2022/10/04 14:07:19;;;;;;;7.43;4.70;;;;;;;;;;4956542;28;20062;-75
2022/10/04 14:10:17;;;;;;;8.90;5.25;;;;;;;;;;4959284;28;20040;-75
2022/10/04 14:13:04;;;;;;;7.65;4.97;;;;;;;;;;4963002;28;20047;-75
2022/10/04 14:15:57;;;;;;;6.93;4.72;;;;;;;;;;4957993;29;20047;-76
2022/10/04 14:18:42;;;;;;;6.47;4.97;;;;;;;;;;4954028;28;20067;-76
2022/10/04 14:21:11;;;;;;;9.65;5.53;;;;;;;;;;4970044;28;20126;-76
2022/10/04 14:23:43;;;;;;;8.07;5.25;;;;;;;;;;4978228;28;20176;-79
2022/10/04 14:26:09;;;;;;;7.88;5.45;;;;;;;;;;4973706;28;20050;-75
2022/10/04 14:28:54;;;;;;;8.57;5.47;;;;;;;;;;4966905;28;20039;-76
2022/10/04 14:31:23;;;;;;;10.75;5.20;;;;;;;;;;4973000;28;20047;-76
2022/10/04 14:34:15;;;;;;;8.00;4.97;;;;;;;;;;4975707;28;20494;-76
2022/10/04 14:36:56;;;;;;;7.43;5.28;;;;;;;;;;4970971;28;20042;-76
2022/10/04 14:39:41;;;;;;;8.40;5.10;;;;;;;;;;4968354;28;20108;-76
2022/10/04 14:42:10;;;;;;;8.45;4.78;;;;;;;;;;4953595;28;20043;-75
2022/10/04 14:44:45;;;;;;;9.77;5.00;;;;;;;;;;4958957;28;20104;-76
2022/10/04 14:47:21;;;;;;;7.72;5.13;;;;;;;;;;4955485;28;20092;-76
2022/10/04 14:49:56;;;;;;;7.47;4.90;;;;;;;;;;4953889;28;20051;-76
2022/10/04 14:52:44;;;;;;;6.03;5.20;;;;;;;;;;4953519;28;20146;-76
2022/10/04 14:55:37;;;;;;;6.75;4.40;;;;;;;;;;4955042;28;20192;-76
2022/10/04 14:58:21;;;;;;;7.15;4.72;;;;;;;;;;4955350;28;20136;-76
2022/10/04 15:00:54;;;;;;;9.90;5.63;;;;;;;;;;4972851;28;20055;-75
2022/10/04 15:03:29;;;;;;;7.90;5.28;;;;;;;;;;4972868;28;20058;-75
2022/10/04 15:05:59;;;;;;;8.75;4.90;;;;;;;;;;4977443;28;20047;-76
2022/10/04 15:08:34;;;;;;;6.82;5.10;;;;;;;;;;4957244;28;20083;-76
2022/10/04 15:11:04;;;;;;;8.82;5.13;;;;;;;;;;4971931;28;20126;-75
2022/10/04 15:13:50;;;;;;;10.00;5.35;;;;;;;;;;4973127;28;20400;-75
2022/10/04 15:16:21;;;;;;;8.75;5.25;;;;;;;;;;4972719;28;20157;-75